createdAt,value
2018-04-14T00:01:40.881Z,10.98
2018-04-14T00:04:07.249Z,11.02
2018-04-14T00:06:33.577Z,11.16
2018-04-14T00:08:59.911Z,11.30
2018-04-14T00:11:26.354Z,11.17
2018-04-14T00:13:52.703Z,11.03
2018-04-14T00:16:19.024Z,10.94
2018-04-14T00:18:45.477Z,10.87
2018-04-14T00:21:11.884Z,10.92
2018-04-14T00:23:38.246Z,10.97
2018-04-14T00:26:04.667Z,10.90
2018-04-14T00:28:31.080Z,10.81
2018-04-14T00:30:57.442Z,10.71
2018-04-14T00:33:23.905Z,10.68
2018-04-14T00:35:50.237Z,10.59
2018-04-14T00:38:16.668Z,10.58
2018-04-14T00:40:43.088Z,10.56
2018-04-14T00:43:09.558Z,10.79
2018-04-14T00:45:35.941Z,10.63
2018-04-14T00:48:02.378Z,10.54
2018-04-14T00:50:28.705Z,10.48
2018-04-14T00:52:55.174Z,10.48
2018-04-14T00:55:21.668Z,10.43
2018-04-14T00:57:48.215Z,10.42
2018-04-14T01:00:14.563Z,10.41
2018-04-14T01:02:40.912Z,10.45
2018-04-14T01:05:07.293Z,10.39
2018-04-14T01:07:33.719Z,10.35
2018-04-14T01:10:00.027Z,10.24
2018-04-14T01:12:26.347Z,10.17
2018-04-14T01:14:52.725Z,10.09
2018-04-14T01:17:19.116Z,10.06
2018-04-14T01:19:45.481Z,10.09
2018-04-14T01:22:11.866Z,10.06
2018-04-14T01:24:38.365Z,10.00
2018-04-14T01:27:04.712Z,9.97
2018-04-14T01:29:31.113Z,9.91
2018-04-14T01:31:57.488Z,9.96
2018-04-14T01:34:23.797Z,9.93
2018-04-14T01:36:50.127Z,9.95
2018-04-14T01:39:16.632Z,10.02
2018-04-14T01:41:43.010Z,10.37
2018-04-14T01:44:09.324Z,10.22
2018-04-14T01:46:35.714Z,10.13
2018-04-14T01:49:02.112Z,10.03
2018-04-14T01:51:28.461Z,10.01
2018-04-14T01:53:54.827Z,10.19
2018-04-14T01:56:21.147Z,10.25
2018-04-14T01:58:47.565Z,10.25
2018-04-14T02:01:13.949Z,10.04
2018-04-14T02:03:40.321Z,9.90
2018-04-14T02:06:06.624Z,9.81
2018-04-14T02:08:33.096Z,9.76
2018-04-14T02:10:59.466Z,9.91
2018-04-14T02:13:25.863Z,9.88
2018-04-14T02:15:52.221Z,9.85
2018-04-14T02:18:18.542Z,9.81
2018-04-14T02:20:44.928Z,9.78
2018-04-14T02:23:11.326Z,9.89
2018-04-14T02:25:37.672Z,9.82
2018-04-14T02:28:04.083Z,9.81
2018-04-14T02:30:30.477Z,9.80
2018-04-14T02:32:56.825Z,9.78
2018-04-14T02:35:23.148Z,9.73
2018-04-14T02:37:49.523Z,9.75
2018-04-14T02:40:15.840Z,9.73
2018-04-14T02:42:42.175Z,9.70
2018-04-14T02:45:08.553Z,9.68
2018-04-14T02:47:34.976Z,9.86
2018-04-14T02:50:01.277Z,9.73
2018-04-14T02:52:27.693Z,9.62
2018-04-14T02:54:54.082Z,9.49
2018-04-14T02:57:20.412Z,9.41
2018-04-14T02:59:46.894Z,9.36
2018-04-14T03:02:13.263Z,9.36
2018-04-14T03:04:39.653Z,9.39
2018-04-14T03:07:06.049Z,9.43
2018-04-14T03:09:32.503Z,9.36
2018-04-14T03:11:58.859Z,9.34
2018-04-14T03:14:25.300Z,9.31
2018-04-14T03:16:51.609Z,9.24
2018-04-14T03:19:17.969Z,9.25
2018-04-14T03:21:44.431Z,9.24
2018-04-14T03:24:10.763Z,9.24
2018-04-14T03:26:37.150Z,9.24
2018-04-14T03:29:03.561Z,9.20
2018-04-14T03:31:29.863Z,9.09
2018-04-14T03:33:56.197Z,9.12
2018-04-14T03:36:22.563Z,9.11
2018-04-14T03:38:48.982Z,9.08
2018-04-14T03:41:15.339Z,9.05
2018-04-14T03:43:41.860Z,9.05
2018-04-14T03:46:08.280Z,9.00
2018-04-14T03:48:34.645Z,8.99
2018-04-14T03:51:01.006Z,9.06
2018-04-14T03:53:27.318Z,9.04
2018-04-14T03:55:53.669Z,8.96
2018-04-14T03:58:20.148Z,8.89
2018-04-14T04:00:46.498Z,8.93
2018-04-14T04:03:12.965Z,8.99
2018-04-14T04:05:39.375Z,9.01
2018-04-14T04:08:05.854Z,9.05
2018-04-14T04:10:32.251Z,9.17
2018-04-14T04:12:58.881Z,9.30
2018-04-14T04:15:25.288Z,9.57
2018-04-14T04:17:51.845Z,9.89
2018-04-14T04:20:56.162Z,10.33
2018-04-14T04:23:34.983Z,10.85
2018-04-14T04:26:01.591Z,11.32
2018-04-14T04:28:28.466Z,11.83
2018-04-14T04:30:55.037Z,12.28
2018-04-14T04:33:21.529Z,12.78
2018-04-14T04:35:48.017Z,12.92
2018-04-14T04:38:14.521Z,13.14
2018-04-14T04:40:41.385Z,13.67
2018-04-14T04:43:07.905Z,14.14
2018-04-14T04:45:34.354Z,14.45
2018-04-14T04:48:01.112Z,14.73
2018-04-14T04:50:28.011Z,15.13
2018-04-14T04:52:54.953Z,15.56
2018-04-14T04:55:22.469Z,15.61
2018-04-14T04:57:49.311Z,15.69
2018-04-14T05:00:15.704Z,15.96
2018-04-14T05:02:42.229Z,16.36
2018-04-14T05:05:08.587Z,16.69
2018-04-14T05:07:35.014Z,16.04
2018-04-14T05:10:01.841Z,15.99
2018-04-14T05:12:28.173Z,15.84
2018-04-14T05:14:54.562Z,15.68
2018-04-14T05:17:21.067Z,16.13
2018-04-14T05:19:47.539Z,16.38
2018-04-14T05:22:14.150Z,16.67
2018-04-14T05:24:40.574Z,16.71
2018-04-14T05:27:07.058Z,16.90
2018-04-14T05:29:33.989Z,17.01
2018-04-14T05:32:00.580Z,17.30
2018-04-14T05:34:27.071Z,17.64
2018-04-14T05:36:53.427Z,17.92
2018-04-14T05:39:20.005Z,17.95
2018-04-14T05:41:46.441Z,18.28
2018-04-14T05:44:12.986Z,18.12
2018-04-14T05:46:39.522Z,18.36
2018-04-14T05:49:05.955Z,18.05
2018-04-14T05:51:32.811Z,18.20
2018-04-14T05:53:59.279Z,18.47
2018-04-14T05:56:25.925Z,18.48
2018-04-14T05:58:52.728Z,18.48
2018-04-14T06:01:19.203Z,18.52
2018-04-14T06:03:45.556Z,17.91
2018-04-14T06:06:11.957Z,18.25
2018-04-14T06:08:38.379Z,18.58
2018-04-14T06:11:04.739Z,18.79
2018-04-14T06:13:31.285Z,18.98
2018-04-14T06:15:57.733Z,19.11
2018-04-14T06:18:24.699Z,18.64
2018-04-14T06:20:51.477Z,19.22
2018-04-14T06:23:18.017Z,19.74
2018-04-14T06:25:44.483Z,19.32
2018-04-14T06:28:11.157Z,19.10
2018-04-14T06:30:37.553Z,18.89
2018-04-14T06:33:03.863Z,18.64
2018-04-14T06:35:30.289Z,18.27
2018-04-14T06:37:56.702Z,17.90
2018-04-14T06:40:23.271Z,18.01
2018-04-14T06:42:49.658Z,18.05
2018-04-14T06:45:16.035Z,18.36
2018-04-14T06:47:42.676Z,18.15
2018-04-14T06:50:09.320Z,17.87
2018-04-14T06:52:35.690Z,18.20
2018-04-14T06:55:02.192Z,18.27
2018-04-14T06:57:28.561Z,18.32
2018-04-14T06:59:55.153Z,18.41
2018-04-14T07:02:21.768Z,18.41
2018-04-14T07:04:48.221Z,18.56
2018-04-14T07:07:14.705Z,18.63
2018-04-14T07:09:41.717Z,18.53
2018-04-14T07:12:08.113Z,18.87
2018-04-14T07:14:34.559Z,19.30
2018-04-14T07:17:01.002Z,19.57
2018-04-14T07:19:27.451Z,19.85
2018-04-14T07:21:53.893Z,20.16
2018-04-14T07:24:20.315Z,19.78
2018-04-14T07:26:46.673Z,20.23
2018-04-14T07:29:14.139Z,20.27
2018-04-14T07:31:40.554Z,20.51
2018-04-14T07:34:06.885Z,21.39
2018-04-14T07:36:33.607Z,21.41
2018-04-14T07:39:00.159Z,20.95
2018-04-14T07:41:26.568Z,21.29
2018-04-14T07:43:53.044Z,21.03
2018-04-14T07:46:19.527Z,21.29
2018-04-14T07:48:45.912Z,21.28
2018-04-14T07:51:12.644Z,21.30
2018-04-14T07:53:38.993Z,21.74
2018-04-14T07:56:05.329Z,21.54
2018-04-14T07:58:32.920Z,21.62
2018-04-14T08:00:59.880Z,22.11
2018-04-14T08:03:26.293Z,21.98
2018-04-14T08:05:52.685Z,22.48
2018-04-14T08:08:19.056Z,22.25
2018-04-14T08:10:45.520Z,22.86
2018-04-14T08:13:11.912Z,22.43
2018-04-14T08:15:38.282Z,22.40
2018-04-14T08:18:04.624Z,22.34
2018-04-14T08:20:31.134Z,22.82
2018-04-14T08:22:57.525Z,22.72
2018-04-14T08:25:23.921Z,22.97
2018-04-14T08:27:51.445Z,23.09
2018-04-14T08:30:18.263Z,23.16
2018-04-14T08:32:44.661Z,24.05
2018-04-14T08:35:11.222Z,23.29
2018-04-14T08:37:37.719Z,23.46
2018-04-14T08:40:04.465Z,24.28
2018-04-14T08:42:30.970Z,24.50
2018-04-14T08:44:57.578Z,24.74
2018-04-14T08:47:24.096Z,24.30
2018-04-14T08:49:50.603Z,23.93
2018-04-14T08:52:17.104Z,24.43
2018-04-14T08:54:43.715Z,24.62
2018-04-14T08:57:10.446Z,24.64
2018-04-14T08:59:36.999Z,24.90
2018-04-14T09:02:03.581Z,24.24
2018-04-14T09:04:29.986Z,24.94
2018-04-14T09:06:56.934Z,24.96
2018-04-14T09:09:23.594Z,25.48
2018-04-14T09:11:49.998Z,25.01
2018-04-14T09:14:16.400Z,25.02
2018-04-14T09:16:42.930Z,25.30
2018-04-14T09:19:09.546Z,25.36
2018-04-14T09:21:35.913Z,25.39
2018-04-14T09:24:02.372Z,25.14
2018-04-14T09:26:28.997Z,25.08
2018-04-14T09:28:55.593Z,25.34
2018-04-14T09:31:22.922Z,25.89
2018-04-14T09:33:49.415Z,26.00
2018-04-14T09:36:15.806Z,26.04
2018-04-14T09:38:42.185Z,26.47
2018-04-14T09:41:08.657Z,26.45
2018-04-14T09:43:35.002Z,26.23
2018-04-14T09:46:01.404Z,26.56
2018-04-14T09:48:28.614Z,26.13
2018-04-14T09:50:55.046Z,26.98
2018-04-14T09:53:21.441Z,26.06
2018-04-14T09:55:47.927Z,26.25
2018-04-14T09:58:14.284Z,26.77
2018-04-14T10:00:47.041Z,27.23
2018-04-14T10:03:19.481Z,26.79
2018-04-14T10:05:45.944Z,26.89
2018-04-14T10:08:12.549Z,27.59
2018-04-14T10:10:39.034Z,27.70
2018-04-14T10:13:05.477Z,28.12
2018-04-14T10:15:31.912Z,28.49
2018-04-14T10:17:58.264Z,28.05
2018-04-14T10:20:24.789Z,27.88
2018-04-14T10:22:51.255Z,27.45
2018-04-14T10:25:17.782Z,26.81
2018-04-14T10:27:44.116Z,26.18
2018-04-14T10:30:10.654Z,26.58
2018-04-14T10:32:37.111Z,26.55
2018-04-14T10:35:03.477Z,26.26
2018-04-14T10:37:29.880Z,25.20
2018-04-14T10:39:57.249Z,24.40
2018-04-14T10:42:23.747Z,25.84
2018-04-14T10:44:50.218Z,26.48
2018-04-14T10:47:16.611Z,26.53
2018-04-14T10:49:43.038Z,27.20
2018-04-14T10:52:09.397Z,27.17
2018-04-14T10:54:36.098Z,26.35
2018-04-14T10:57:02.634Z,25.49
2018-04-14T10:59:29.070Z,25.67
2018-04-14T11:01:55.417Z,26.05
2018-04-14T11:04:21.822Z,26.24
2018-04-14T11:06:48.257Z,26.58
2018-04-14T11:09:15.093Z,26.54
2018-04-14T11:11:41.555Z,26.00
2018-04-14T11:14:07.982Z,25.36
2018-04-14T11:16:34.409Z,25.20
2018-04-14T11:19:00.801Z,24.96
2018-04-14T11:21:27.742Z,24.94
2018-04-14T11:23:54.183Z,25.54
2018-04-14T11:26:20.679Z,25.09
2018-04-14T11:28:47.213Z,25.73
2018-04-14T11:31:13.721Z,26.05
2018-04-14T11:33:40.241Z,25.75
2018-04-14T11:36:06.855Z,25.47
2018-04-14T11:38:33.187Z,25.46
2018-04-14T11:40:59.738Z,25.00
2018-04-14T11:43:26.270Z,25.17
2018-04-14T11:45:52.675Z,25.20
2018-04-14T11:48:19.549Z,25.33
2018-04-14T11:50:46.038Z,25.60
2018-04-14T11:53:12.495Z,26.29
2018-04-14T11:55:40.163Z,26.65
2018-04-14T11:58:06.804Z,26.00
2018-04-14T12:00:33.249Z,26.24
2018-04-14T12:02:59.765Z,26.23
2018-04-14T12:05:27.487Z,26.42
2018-04-14T12:07:54.048Z,26.67
2018-04-14T12:10:20.671Z,26.78
2018-04-14T12:12:47.220Z,26.94
2018-04-14T12:15:13.678Z,26.97
2018-04-14T12:17:40.180Z,26.96
2018-04-14T12:20:07.013Z,27.20
2018-04-14T12:22:33.464Z,27.33
2018-04-14T12:25:00.137Z,27.44
2018-04-14T12:27:26.671Z,27.27
2018-04-14T12:29:53.155Z,26.95
2018-04-14T12:32:19.819Z,26.63
2018-04-14T12:34:46.198Z,27.05
2018-04-14T12:37:12.806Z,27.49
2018-04-14T12:39:39.356Z,27.73
2018-04-14T12:42:06.246Z,27.97
2018-04-14T12:44:32.679Z,28.03
2018-04-14T12:46:59.402Z,27.69
2018-04-14T12:49:26.327Z,27.70
2018-04-14T12:51:53.015Z,27.44
2018-04-14T12:54:19.475Z,27.16
2018-04-14T12:56:46.472Z,26.44
2018-04-14T12:59:12.931Z,26.36
2018-04-14T13:01:40.239Z,26.07
2018-04-14T13:04:06.911Z,25.87
2018-04-14T13:06:33.325Z,25.53
2018-04-14T13:08:59.861Z,25.31
2018-04-14T13:11:27.447Z,25.22
2018-04-14T13:13:54.023Z,24.97
2018-04-14T13:16:20.550Z,24.95
2018-04-14T13:18:47.080Z,25.00
2018-04-14T13:21:13.890Z,24.98
2018-04-14T13:23:40.386Z,25.02
2018-04-14T13:26:07.693Z,25.08
2018-04-14T13:28:34.651Z,25.15
2018-04-14T13:31:01.203Z,25.15
2018-04-14T13:33:27.718Z,25.13
2018-04-14T13:35:54.267Z,25.04
2018-04-14T13:38:20.749Z,25.21
2018-04-14T13:40:47.252Z,25.25
2018-04-14T13:43:13.848Z,25.40
2018-04-14T13:45:40.494Z,25.55
2018-04-14T13:48:06.866Z,25.36
2018-04-14T13:50:33.237Z,24.99
2018-04-14T13:52:59.652Z,24.73
2018-04-14T13:55:26.102Z,24.50
2018-04-14T13:57:52.644Z,24.53
2018-04-14T14:00:19.160Z,24.62
2018-04-14T14:02:45.582Z,24.65
2018-04-14T14:05:11.918Z,24.50
2018-04-14T14:07:38.371Z,24.50
2018-04-14T14:10:05.178Z,24.51
2018-04-14T14:12:31.582Z,24.70
2018-04-14T14:14:58.026Z,25.01
2018-04-14T14:17:25.041Z,25.34
2018-04-14T14:19:51.444Z,25.52
2018-04-14T14:22:17.826Z,25.67
2018-04-14T14:24:44.259Z,25.52
2018-04-14T14:27:10.795Z,25.45
2018-04-14T14:29:37.318Z,25.65
2018-04-14T14:32:03.798Z,25.58
2018-04-14T14:34:30.215Z,25.51
2018-04-14T14:36:56.647Z,25.69
2018-04-14T14:39:23.077Z,25.57
2018-04-14T14:41:49.479Z,25.63
2018-04-14T14:44:16.149Z,25.73
2018-04-14T14:46:42.642Z,25.77
2018-04-14T14:49:09.069Z,25.74
2018-04-14T14:51:35.855Z,25.79
2018-04-14T14:54:02.279Z,25.85
2018-04-14T14:56:28.785Z,25.71
2018-04-14T14:58:55.334Z,25.71
2018-04-14T15:01:22.479Z,25.74
2018-04-14T15:03:49.026Z,25.71
2018-04-14T15:06:15.599Z,25.52
2018-04-14T15:08:42.201Z,25.40
2018-04-14T15:11:08.677Z,25.19
2018-04-14T15:13:35.331Z,25.10
2018-04-14T15:16:01.815Z,24.88
2018-04-14T15:18:28.539Z,25.00
2018-04-14T15:20:55.072Z,25.04
2018-04-14T15:23:21.509Z,25.14
2018-04-14T15:25:47.921Z,25.26
2018-04-14T15:28:14.585Z,25.38
2018-04-14T15:30:41.197Z,25.56
2018-04-14T15:33:07.675Z,25.42
2018-04-14T15:35:34.264Z,25.42
2018-04-14T15:38:00.948Z,25.17
2018-04-14T15:40:27.450Z,24.97
2018-04-14T15:42:53.904Z,24.89
2018-04-14T15:45:20.498Z,24.75
2018-04-14T15:47:46.989Z,24.54
2018-04-14T15:50:14.368Z,24.26
2018-04-14T15:52:40.792Z,24.02
2018-04-14T15:55:07.177Z,23.93
2018-04-14T15:57:33.772Z,23.83
2018-04-14T16:00:00.281Z,23.72
2018-04-14T16:02:27.178Z,23.51
2018-04-14T16:04:53.813Z,23.32
2018-04-14T16:07:20.358Z,23.12
2018-04-14T16:09:46.859Z,22.96
2018-04-14T16:12:13.622Z,22.97
2018-04-14T16:14:40.031Z,22.92
2018-04-14T16:17:06.994Z,22.80
2018-04-14T16:19:33.754Z,22.63
2018-04-14T16:22:00.523Z,22.60
2018-04-14T16:24:28.135Z,22.50
2018-04-14T16:26:54.733Z,22.44
2018-04-14T16:29:21.606Z,22.21
2018-04-14T16:31:48.138Z,22.18
2018-04-14T16:34:14.571Z,21.95
2018-04-14T16:36:40.951Z,21.94
2018-04-14T16:39:07.552Z,21.85
2018-04-14T16:41:36.019Z,21.47
2018-04-14T16:44:02.668Z,21.18
2018-04-14T16:46:29.290Z,20.97
2018-04-14T16:48:56.298Z,21.11
2018-04-14T16:51:23.105Z,20.89
2018-04-14T16:53:49.692Z,20.81
2018-04-14T16:56:17.418Z,20.64
2018-04-14T16:58:44.099Z,20.43
2018-04-14T17:01:10.852Z,20.22
2018-04-14T17:03:38.242Z,20.09
2018-04-14T17:06:04.851Z,20.02
2018-04-14T17:08:31.361Z,20.03
2018-04-14T17:10:58.345Z,20.01
2018-04-14T17:13:25.107Z,20.11
2018-04-14T17:15:51.643Z,19.85
2018-04-14T17:18:18.541Z,19.95
2018-04-14T17:20:45.593Z,19.69
2018-04-14T17:23:12.024Z,19.67
2018-04-14T17:25:38.786Z,19.54
2018-04-14T17:28:05.269Z,19.47
2018-04-14T17:30:31.856Z,19.40
2018-04-14T17:32:58.640Z,19.27
2018-04-14T17:35:25.369Z,19.23
2018-04-14T17:37:52.050Z,19.31
2018-04-14T17:40:18.721Z,19.30
2018-04-14T17:42:46.092Z,19.17
2018-04-14T17:45:13.277Z,19.28
2018-04-14T17:47:40.701Z,19.19
2018-04-14T17:50:08.607Z,19.16
2018-04-14T17:52:35.321Z,19.17
2018-04-14T17:55:02.205Z,18.95
2018-04-14T17:57:28.763Z,18.93
2018-04-14T17:59:55.628Z,19.11
2018-04-14T18:02:22.302Z,19.12
2018-04-14T18:04:49.410Z,19.10
2018-04-14T18:07:16.602Z,19.27
2018-04-14T18:09:43.802Z,19.28
2018-04-14T18:12:11.461Z,19.06
2018-04-14T18:14:39.947Z,19.08
2018-04-14T18:17:06.913Z,19.04
2018-04-14T18:19:34.594Z,19.06
2018-04-14T18:22:01.619Z,19.00
2018-04-14T18:24:29.060Z,19.08
2018-04-14T18:26:55.822Z,19.19
2018-04-14T18:29:22.908Z,19.02
2018-04-14T18:31:50.017Z,19.01
2018-04-14T18:34:16.942Z,18.97
2018-04-14T18:36:43.876Z,19.15
2018-04-14T18:39:10.733Z,18.96
2018-04-14T18:41:37.779Z,18.82
2018-04-14T18:44:04.714Z,18.90
2018-04-14T18:46:32.481Z,18.87
2018-04-14T18:48:59.495Z,18.67
2018-04-14T18:51:26.512Z,18.57
2018-04-14T18:53:52.948Z,18.71
2018-04-14T18:56:19.894Z,18.61
2018-04-14T18:58:46.860Z,18.59
2018-04-14T19:01:16.174Z,18.59
2018-04-14T19:03:43.993Z,18.43
2018-04-14T19:06:12.012Z,18.98
2018-04-14T19:08:39.838Z,18.91
2018-04-14T19:11:06.822Z,18.73
2018-04-14T19:13:33.634Z,18.57
2018-04-14T19:16:01.730Z,18.45
2018-04-14T19:18:28.551Z,18.15
2018-04-14T19:20:55.518Z,18.36
2018-04-14T19:23:22.201Z,18.16
2018-04-14T19:25:48.804Z,18.28
2018-04-14T19:28:17.599Z,18.35
2018-04-14T19:30:44.664Z,18.33
2018-04-14T19:33:11.343Z,18.15
2018-04-14T19:35:38.141Z,18.20
2018-04-14T19:38:05.310Z,17.87
2018-04-14T19:40:32.243Z,17.92
2018-04-14T19:43:01.776Z,17.61
2018-04-14T19:45:30.232Z,17.17
2018-04-14T19:47:57.976Z,16.85
2018-04-14T19:50:25.873Z,16.76
2018-04-14T19:52:54.646Z,16.52
2018-04-14T19:55:23.636Z,16.63
2018-04-14T19:57:51.829Z,16.60
2018-04-14T20:00:22.711Z,16.75
2018-04-14T20:02:51.979Z,16.53
2018-04-14T20:05:19.427Z,16.64
2018-04-14T20:07:46.524Z,16.62
2018-04-14T20:10:13.172Z,16.65
2018-04-14T20:12:40.535Z,16.35
2018-04-14T20:15:07.136Z,16.09
2018-04-14T20:17:34.286Z,15.82
2018-04-14T20:20:01.081Z,15.77
2018-04-14T20:22:27.662Z,16.04
2018-04-14T20:24:54.253Z,15.94
2018-04-14T20:27:20.656Z,15.97
2018-04-14T20:29:47.136Z,15.94
2018-04-14T20:32:14.611Z,15.72
2018-04-14T20:34:41.247Z,15.46
2018-04-14T20:37:07.830Z,15.25
2018-04-14T20:39:34.451Z,15.15
2018-04-14T20:42:00.972Z,14.98
2018-04-14T20:44:28.273Z,14.79
2018-04-14T20:46:56.043Z,14.74
2018-04-14T20:49:22.747Z,14.71
2018-04-14T20:51:49.431Z,14.68
2018-04-14T20:54:16.137Z,14.57
2018-04-14T20:56:42.627Z,14.61
2018-04-14T20:59:09.253Z,14.66
2018-04-14T21:01:35.903Z,14.55
2018-04-14T21:04:02.600Z,14.51
2018-04-14T21:06:29.127Z,14.52
2018-04-14T21:08:55.462Z,14.25
2018-04-14T21:11:21.929Z,14.21
2018-04-14T21:13:48.407Z,14.22
2018-04-14T21:16:14.857Z,14.32
2018-04-14T21:18:41.478Z,14.22
2018-04-14T21:21:08.028Z,14.20
2018-04-14T21:23:34.421Z,14.09
2018-04-14T21:26:00.983Z,13.91
2018-04-14T21:28:27.790Z,13.95
2018-04-14T21:30:54.460Z,13.97
2018-04-14T21:33:20.970Z,13.88
2018-04-14T21:35:47.785Z,13.84
2018-04-14T21:38:14.264Z,13.74
2018-04-14T21:40:40.760Z,13.63
2018-04-14T21:43:07.262Z,13.55
2018-04-14T21:45:33.748Z,13.48
2018-04-14T21:48:00.198Z,13.60
2018-04-14T21:50:26.935Z,13.57
2018-04-14T21:52:54.543Z,13.44
2018-04-14T21:55:20.923Z,13.38
2018-04-14T21:57:47.379Z,13.45
2018-04-14T22:00:14.006Z,13.41
2018-04-14T22:02:40.639Z,13.42
2018-04-14T22:05:07.145Z,13.40
2018-04-14T22:07:33.970Z,13.51
2018-04-14T22:10:00.604Z,13.43
2018-04-14T22:12:28.287Z,13.38
2018-04-14T22:14:54.830Z,13.35
2018-04-14T22:17:21.233Z,13.32
2018-04-14T22:19:47.829Z,13.24
2018-04-14T22:22:15.456Z,13.26
2018-04-14T22:24:41.901Z,13.23
2018-04-14T22:27:08.455Z,13.16
2018-04-14T22:29:34.919Z,13.19
2018-04-14T22:32:01.435Z,13.12
2018-04-14T22:34:27.927Z,13.13
2018-04-14T22:36:54.344Z,13.09
2018-04-14T22:39:20.951Z,13.08
2018-04-14T22:41:47.533Z,13.08
2018-04-14T22:44:13.939Z,13.03
2018-04-14T22:46:40.444Z,12.93
2018-04-14T22:49:06.837Z,12.91
2018-04-14T22:51:33.264Z,12.82
2018-04-14T22:53:59.627Z,12.82
2018-04-14T22:56:26.023Z,12.75
2018-04-14T22:58:52.420Z,12.65
2018-04-14T23:01:18.906Z,12.75
2018-04-14T23:03:45.365Z,12.67
2018-04-14T23:06:11.780Z,12.67
2018-04-14T23:08:38.224Z,12.61
2018-04-14T23:11:04.825Z,12.58
2018-04-14T23:13:31.209Z,12.59
2018-04-14T23:15:57.549Z,12.54
2018-04-14T23:18:23.961Z,12.52
2018-04-14T23:20:50.513Z,12.47
2018-04-14T23:23:16.974Z,12.37
2018-04-14T23:25:43.467Z,12.39
2018-04-14T23:28:09.818Z,12.34
2018-04-14T23:30:36.144Z,12.29
2018-04-14T23:33:02.614Z,12.26
2018-04-14T23:35:28.928Z,12.25
2018-04-14T23:37:55.296Z,12.27
2018-04-14T23:40:21.751Z,12.19
2018-04-14T23:42:48.112Z,12.38
2018-04-14T23:45:14.569Z,12.92
2018-04-14T23:47:40.980Z,13.14
2018-04-14T23:50:07.483Z,13.06
2018-04-14T23:52:33.856Z,13.09
2018-04-14T23:55:00.314Z,13.41
2018-04-14T23:57:26.681Z,13.45
2018-04-14T23:59:53.109Z,13.55
